Time;durP1;ratioP1;P1;durP2;ratioP2;P2;SDS_P1;SDS_P2;PMS_P1;PMS_P2;Temp;Humidity;BMP_temperature;BMP_pressure;BME280_temperature;BME280_humidity;BME280_pressure;Samples;Min_cycle;Max_cycle;Signal;HPM_P1;HPM_P2
2022/07/18 00:01:40;;;;;;;;;;;17.10;99.90;;;;;;5137833;27;20371;-70
2022/07/18 00:04:06;;;;;;;;;;;17.10;99.90;;;;;;5133725;27;20423;-71
2022/07/18 00:06:31;;;;;;;;;;;17.10;99.90;;;;;;5136805;27;19946;-73
2022/07/18 00:08:57;;;;;;;;;;;17.10;99.90;;;;;;5137903;27;19967;-71
2022/07/18 00:11:22;;;;;;;;;;;17.20;99.90;;;;;;5133113;27;19975;-71
2022/07/18 00:13:50;;;;;;;;;;;17.10;99.90;;;;;;5137540;27;19924;-71
2022/07/18 00:16:15;;;;;;;;;;;17.10;99.90;;;;;;5142909;27;19931;-72
2022/07/18 00:18:41;;;;;;;;;;;17.00;99.90;;;;;;5143781;27;19927;-72
2022/07/18 00:21:07;;;;;;;;;;;17.10;99.90;;;;;;5142466;27;19946;-71
2022/07/18 00:23:32;;;;;;;;;;;17.10;99.90;;;;;;5146314;27;19964;-72
2022/07/18 00:25:58;;;;;;;;;;;17.10;99.90;;;;;;5142075;27;20014;-71
2022/07/18 00:28:23;;;;;;;;;;;17.10;99.90;;;;;;5145069;27;20718;-71
2022/07/18 00:30:49;;;;;;;;;;;17.10;99.90;;;;;;5144251;27;19923;-71
2022/07/18 00:33:14;;;;;;;;;;;17.10;99.90;;;;;;5136937;27;20026;-71
2022/07/18 00:35:40;;;;;;;;;;;17.10;99.90;;;;;;5141857;27;19958;-71
2022/07/18 00:38:05;;;;;;;;;;;17.10;99.90;;;;;;5140974;27;19924;-71
2022/07/18 00:40:31;;;;;;;;;;;17.10;99.90;;;;;;5145217;27;19923;-71
2022/07/18 00:42:57;;;;;;;;;;;17.00;99.90;;;;;;5142549;27;19974;-71
2022/07/18 00:45:23;;;;;;;;;;;17.00;99.90;;;;;;5145168;27;20332;-71
2022/07/18 00:47:51;;;;;;;;;;;17.00;99.90;;;;;;5144148;27;19930;-71
2022/07/18 00:50:17;;;;;;;;;;;17.00;99.90;;;;;;5146342;27;19923;-71
2022/07/18 00:52:43;;;;;;;;;;;17.00;99.90;;;;;;5162369;27;20425;-70
2022/07/18 00:55:08;;;;;;;;;;;17.00;99.90;;;;;;5144146;27;20013;-71
2022/07/18 00:57:34;;;;;;;;;;;16.90;99.90;;;;;;5165978;27;19933;-71
2022/07/18 01:02:44;;;;;;;;;;;16.90;99.90;;;;;;5162329;27;19923;-70
2022/07/18 01:05:09;;;;;;;;;;;16.80;99.90;;;;;;5164701;27;20027;-71
2022/07/18 01:07:35;;;;;;;;;;;16.80;99.90;;;;;;5144144;27;20406;-71
2022/07/18 01:10:01;;;;;;;;;;;16.90;99.90;;;;;;5161308;27;20382;-71
2022/07/18 01:12:27;;;;;;;;;;;16.80;99.90;;;;;;5147920;27;19923;-71
2022/07/18 01:14:53;;;;;;;;;;;17.00;99.90;;;;;;5143703;27;19930;-71
2022/07/18 01:17:19;;;;;;;;;;;17.00;99.90;;;;;;5146582;27;19930;-71
2022/07/18 01:19:45;;;;;;;;;;;16.90;99.90;;;;;;5164005;27;19939;-71
2022/07/18 01:22:12;;;;;;;;;;;16.90;99.90;;;;;;5163107;27;19946;-71
2022/07/18 01:24:38;;;;;;;;;;;16.90;99.90;;;;;;5145962;27;20021;-71
2022/07/18 01:27:03;;;;;;;;;;;16.90;99.90;;;;;;5163207;27;20418;-71
2022/07/18 01:29:29;;;;;;;;;;;16.90;99.90;;;;;;5165084;27;20377;-71
2022/07/18 01:31:54;;;;;;;;;;;16.90;99.90;;;;;;5143426;27;20381;-71
2022/07/18 01:34:20;;;;;;;;;;;16.90;99.90;;;;;;5166010;27;19930;-71
2022/07/18 01:36:46;;;;;;;;;;;17.00;99.90;;;;;;5161710;27;19931;-71
2022/07/18 01:39:11;;;;;;;;;;;16.80;99.90;;;;;;5145339;27;19933;-71
2022/07/18 01:41:37;;;;;;;;;;;16.80;99.90;;;;;;5164307;27;19930;-71
2022/07/18 01:44:03;;;;;;;;;;;16.70;99.90;;;;;;5163716;27;20271;-71
2022/07/18 01:46:28;;;;;;;;;;;16.70;99.90;;;;;;5144399;27;20006;-71
2022/07/18 01:48:54;;;;;;;;;;;16.70;99.90;;;;;;5146526;27;20005;-71
2022/07/18 01:51:19;;;;;;;;;;;16.60;99.90;;;;;;5142882;27;20037;-70
2022/07/18 01:53:53;;;;;;;;;;;16.60;99.90;;;;;;5160965;27;19922;-71
2022/07/18 01:56:21;;;;;;;;;;;16.50;99.90;;;;;;5158716;27;19961;-71
2022/07/18 01:58:46;;;;;;;;;;;16.50;99.90;;;;;;5146515;27;19927;-70
2022/07/18 02:01:12;;;;;;;;;;;16.40;99.90;;;;;;5143628;27;20397;-71
2022/07/18 02:03:37;;;;;;;;;;;16.50;99.90;;;;;;5164724;27;19949;-71
2022/07/18 02:06:03;;;;;;;;;;;16.40;99.90;;;;;;5162446;27;19923;-71
2022/07/18 02:08:28;;;;;;;;;;;16.30;99.90;;;;;;5143187;27;19923;-71
2022/07/18 02:10:54;;;;;;;;;;;16.30;99.90;;;;;;5162304;27;19977;-71
2022/07/18 02:13:20;;;;;;;;;;;16.30;99.90;;;;;;5166317;27;19944;-71
2022/07/18 02:15:46;;;;;;;;;;;16.40;99.90;;;;;;5147528;27;19923;-71
2022/07/18 02:18:11;;;;;;;;;;;16.20;99.90;;;;;;5169189;27;20362;-71
2022/07/18 02:20:38;;;;;;;;;;;16.20;99.90;;;;;;5166305;27;19966;-71
2022/07/18 02:23:04;;;;;;;;;;;16.20;99.90;;;;;;5148576;27;19930;-71
2022/07/18 02:25:29;;;;;;;;;;;16.40;99.90;;;;;;5146880;27;20281;-71
2022/07/18 02:27:55;;;;;;;;;;;16.20;99.90;;;;;;5147609;27;19919;-71
2022/07/18 02:30:23;;;;;;;;;;;16.20;99.90;;;;;;5150639;27;19975;-71
2022/07/18 02:32:48;;;;;;;;;;;16.20;99.90;;;;;;5147048;27;19954;-68
2022/07/18 02:35:14;;;;;;;;;;;16.20;99.90;;;;;;5168897;27;20018;-70
2022/07/18 02:37:41;;;;;;;;;;;16.30;99.90;;;;;;5165661;27;20049;-71
2022/07/18 02:40:07;;;;;;;;;;;16.30;99.90;;;;;;5146648;27;20013;-70
2022/07/18 02:42:33;;;;;;;;;;;16.20;99.90;;;;;;5166189;27;19948;-70
2022/07/18 02:44:58;;;;;;;;;;;16.30;99.90;;;;;;5148867;27;19927;-70
2022/07/18 02:47:24;;;;;;;;;;;16.30;99.90;;;;;;5166605;27;19948;-68
2022/07/18 02:49:49;;;;;;;;;;;16.30;99.90;;;;;;5165473;27;20367;-70
2022/07/18 02:52:15;;;;;;;;;;;16.30;99.90;;;;;;5168932;27;20013;-69
2022/07/18 02:54:41;;;;;;;;;;;16.40;99.90;;;;;;5160085;27;20434;-69
2022/07/18 02:57:06;;;;;;;;;;;16.50;99.90;;;;;;5168579;27;19922;-69
2022/07/18 02:59:32;;;;;;;;;;;16.50;99.90;;;;;;5165632;27;19923;-69
2022/07/18 03:01:58;;;;;;;;;;;16.50;99.90;;;;;;5148005;27;19948;-69
2022/07/18 03:04:24;;;;;;;;;;;16.60;99.90;;;;;;5167057;27;20382;-69
2022/07/18 03:06:49;;;;;;;;;;;16.70;99.90;;;;;;5165903;27;20386;-69
2022/07/18 03:09:16;;;;;;;;;;;16.60;99.90;;;;;;5166534;27;20054;-69
2022/07/18 03:11:41;;;;;;;;;;;16.70;99.90;;;;;;5165057;27;20362;-69
2022/07/18 03:14:07;;;;;;;;;;;16.70;99.90;;;;;;5168619;27;20002;-69
2022/07/18 03:16:33;;;;;;;;;;;16.70;99.90;;;;;;5164150;27;20389;-68
2022/07/18 03:18:58;;;;;;;;;;;16.70;99.90;;;;;;5148687;27;19927;-68
2022/07/18 03:21:24;;;;;;;;;;;16.60;99.90;;;;;;5165959;27;19926;-69
2022/07/18 03:23:52;;;;;;;;;;;16.80;99.90;;;;;;5163961;27;19926;-68
2022/07/18 03:26:17;;;;;;;;;;;17.30;99.90;;;;;;5165219;27;19956;-68
2022/07/18 03:28:43;;;;;;;;;;;16.50;99.90;;;;;;5166252;27;20328;-69
2022/07/18 03:31:08;;;;;;;;;;;16.50;99.90;;;;;;5145875;27;19927;-71
2022/07/18 03:33:34;;;;;;;;;;;16.40;99.90;;;;;;5146171;27;20324;-69
2022/07/18 03:35:59;;;;;;;;;;;16.40;99.90;;;;;;5138032;27;20401;-72
2022/07/18 03:38:25;;;;;;;;;;;16.40;99.90;;;;;;5142854;27;19970;-71
2022/07/18 03:40:50;;;;;;;;;;;16.30;99.90;;;;;;5164007;27;19969;-69
2022/07/18 03:43:16;;;;;;;;;;;16.40;99.90;;;;;;5165447;27;19923;-69
2022/07/18 03:45:42;;;;;;;;;;;16.40;99.90;;;;;;5166488;27;20370;-68
2022/07/18 03:48:07;;;;;;;;;;;16.20;99.90;;;;;;5163656;27;19931;-68
2022/07/18 03:50:33;;;;;;;;;;;16.10;99.90;;;;;;5166767;27;19945;-68
2022/07/18 03:52:59;;;;;;;;;;;16.00;99.90;;;;;;5159397;27;20287;-67
2022/07/18 03:55:25;;;;;;;;;;;16.00;99.90;;;;;;5163675;27;19935;-68
2022/07/18 03:57:50;;;;;;;;;;;16.00;99.90;;;;;;5146732;27;19923;-68
2022/07/18 04:00:16;;;;;;;;;;;16.00;99.90;;;;;;5165555;27;19923;-67
2022/07/18 04:02:42;;;;;;;;;;;16.00;99.90;;;;;;5164791;27;19927;-67
2022/07/18 04:05:08;;;;;;;;;;;16.10;99.90;;;;;;5165249;27;20009;-67
2022/07/18 04:07:34;;;;;;;;;;;16.00;99.90;;;;;;5163761;27;19930;-67
2022/07/18 04:10:00;;;;;;;;;;;16.10;99.90;;;;;;5145898;27;19923;-69
2022/07/18 04:12:26;;;;;;;;;;;16.10;99.90;;;;;;5163333;27;19926;-69
2022/07/18 04:14:51;;;;;;;;;;;16.10;99.90;;;;;;5163232;27;19974;-68
2022/07/18 04:17:17;;;;;;;;;;;16.30;99.90;;;;;;5165779;27;19923;-68
2022/07/18 04:19:42;;;;;;;;;;;16.30;99.90;;;;;;5164385;27;19933;-67
2022/07/18 04:22:08;;;;;;;;;;;16.20;99.90;;;;;;5145775;27;20019;-70
2022/07/18 04:24:33;;;;;;;;;;;16.10;99.90;;;;;;5147619;27;20285;-68
2022/07/18 04:26:59;;;;;;;;;;;16.10;99.90;;;;;;5162639;27;19919;-68
2022/07/18 04:29:24;;;;;;;;;;;16.10;99.90;;;;;;5146480;27;20373;-68
2022/07/18 04:31:51;;;;;;;;;;;16.30;99.90;;;;;;5163300;27;19919;-69
2022/07/18 04:34:17;;;;;;;;;;;16.20;99.90;;;;;;5158570;27;20001;-70
2022/07/18 04:36:42;;;;;;;;;;;16.20;99.90;;;;;;5143864;27;19957;-69
2022/07/18 04:39:08;;;;;;;;;;;16.40;99.90;;;;;;5163219;27;19974;-69
2022/07/18 04:41:34;;;;;;;;;;;16.20;99.90;;;;;;5165056;27;19923;-69
2022/07/18 04:43:59;;;;;;;;;;;16.40;99.90;;;;;;5163529;27;20022;-69
2022/07/18 04:46:25;;;;;;;;;;;16.30;99.90;;;;;;5147025;27;19934;-68
2022/07/18 04:48:50;;;;;;;;;;;16.30;99.90;;;;;;5162201;27;19923;-69
2022/07/18 04:51:16;;;;;;;;;;;16.30;99.90;;;;;;5162398;27;19923;-69
2022/07/18 04:53:41;;;;;;;;;;;16.30;99.90;;;;;;5146109;27;20018;-69
2022/07/18 04:56:07;;;;;;;;;;;16.60;99.90;;;;;;5145290;27;19962;-69
2022/07/18 04:58:32;;;;;;;;;;;16.30;99.90;;;;;;5160745;27;20366;-70
2022/07/18 05:00:58;;;;;;;;;;;16.40;99.90;;;;;;5145586;27;19967;-70
2022/07/18 05:03:24;;;;;;;;;;;16.50;99.90;;;;;;5162655;27;20014;-69
2022/07/18 05:05:49;;;;;;;;;;;16.50;99.90;;;;;;5147422;27;20262;-70
2022/07/18 05:08:15;;;;;;;;;;;16.80;99.90;;;;;;5161223;27;19931;-70
2022/07/18 05:10:40;;;;;;;;;;;16.70;99.90;;;;;;5165809;27;19930;-70
2022/07/18 05:13:06;;;;;;;;;;;16.80;99.90;;;;;;5161303;27;19923;-70
2022/07/18 05:15:31;;;;;;;;;;;16.80;99.90;;;;;;5145018;27;20335;-70
2022/07/18 05:17:57;;;;;;;;;;;16.80;99.90;;;;;;5163176;27;19930;-70
2022/07/18 05:20:23;;;;;;;;;;;16.80;99.90;;;;;;5165429;27;20021;-70
2022/07/18 05:22:51;;;;;;;;;;;16.90;99.90;;;;;;5161945;27;20018;-70
2022/07/18 05:25:17;;;;;;;;;;;16.90;99.90;;;;;;5166067;27;19925;-69
2022/07/18 05:27:42;;;;;;;;;;;17.00;99.90;;;;;;5157872;27;19923;-70
2022/07/18 05:30:10;;;;;;;;;;;17.00;99.90;;;;;;5164367;27;20273;-70
2022/07/18 05:32:36;;;;;;;;;;;17.10;99.90;;;;;;5144391;27;19923;-70
2022/07/18 05:35:01;;;;;;;;;;;17.30;99.90;;;;;;5144992;27;19923;-70
2022/07/18 05:37:27;;;;;;;;;;;17.10;99.90;;;;;;5162807;27;19972;-70
2022/07/18 05:39:53;;;;;;;;;;;17.20;99.90;;;;;;5164446;27;19926;-70
2022/07/18 05:42:19;;;;;;;;;;;17.20;99.90;;;;;;5162736;27;19961;-70
2022/07/18 05:44:47;;;;;;;;;;;17.20;99.90;;;;;;5162922;27;19930;-70
2022/07/18 05:47:13;;;;;;;;;;;17.30;99.90;;;;;;5165726;27;19922;-68
2022/07/18 05:49:41;;;;;;;;;;;17.30;99.90;;;;;;5143042;27;19924;-69
2022/07/18 05:52:07;;;;;;;;;;;17.30;99.90;;;;;;5148785;27;19923;-69
2022/07/18 05:54:32;;;;;;;;;;;17.40;99.90;;;;;;5146311;27;20290;-69
2022/07/18 05:56:58;;;;;;;;;;;17.50;99.90;;;;;;5144072;27;19927;-69
2022/07/18 05:59:23;;;;;;;;;;;17.50;99.90;;;;;;5145089;27;20263;-71
2022/07/18 06:01:49;;;;;;;;;;;17.60;99.90;;;;;;5146629;27;19930;-68
2022/07/18 06:04:15;;;;;;;;;;;17.70;99.90;;;;;;5147612;27;20400;-70
2022/07/18 06:06:41;;;;;;;;;;;17.80;99.90;;;;;;5145599;27;19924;-70
2022/07/18 06:09:08;;;;;;;;;;;17.80;99.90;;;;;;5148204;27;19934;-70
2022/07/18 06:11:34;;;;;;;;;;;17.90;99.90;;;;;;5144800;27;19930;-68
2022/07/18 06:14:02;;;;;;;;;;;18.00;99.90;;;;;;5143354;27;19932;-71
2022/07/18 06:16:31;;;;;;;;;;;18.20;99.90;;;;;;5147036;27;19976;-71
2022/07/18 06:18:57;;;;;;;;;;;18.30;99.90;;;;;;5145173;27;19975;-72
2022/07/18 06:21:23;;;;;;;;;;;18.40;99.90;;;;;;5147185;27;19930;-73
2022/07/18 06:23:48;;;;;;;;;;;18.50;99.90;;;;;;5147431;27;19923;-72
2022/07/18 06:26:14;;;;;;;;;;;18.60;99.90;;;;;;5145181;27;19973;-71
2022/07/18 06:28:42;;;;;;;;;;;18.70;99.90;;;;;;5146697;27;20018;-71
2022/07/18 06:31:08;;;;;;;;;;;18.80;99.90;;;;;;5144784;27;19924;-72
2022/07/18 06:33:33;;;;;;;;;;;19.00;99.90;;;;;;5147856;27;20435;-72
2022/07/18 06:35:59;;;;;;;;;;;19.10;99.90;;;;;;5143218;27;19931;-71
2022/07/18 06:38:24;;;;;;;;;;;19.30;99.90;;;;;;5147257;27;19985;-71
2022/07/18 06:40:51;;;;;;;;;;;19.40;99.90;;;;;;5145266;27;19927;-71
2022/07/18 06:43:19;;;;;;;;;;;19.50;99.90;;;;;;5146219;27;19948;-72
2022/07/18 06:45:47;;;;;;;;;;;19.50;99.90;;;;;;5145412;27;19930;-72
2022/07/18 06:48:14;;;;;;;;;;;19.50;99.90;;;;;;5151059;27;19923;-71
2022/07/18 06:50:39;;;;;;;;;;;19.60;99.90;;;;;;5166407;27;19923;-71
2022/07/18 06:53:08;;;;;;;;;;;19.70;99.90;;;;;;5144739;27;19923;-71
2022/07/18 06:55:33;;;;;;;;;;;19.90;99.90;;;;;;5145751;27;19923;-72
2022/07/18 06:57:59;;;;;;;;;;;20.00;99.90;;;;;;5166172;27;20289;-71
2022/07/18 07:00:26;;;;;;;;;;;20.10;99.90;;;;;;5145866;27;20283;-71
2022/07/18 07:02:51;;;;;;;;;;;20.20;99.90;;;;;;5148775;27;19935;-71
2022/07/18 07:05:18;;;;;;;;;;;20.30;99.90;;;;;;5166492;27;20331;-71
2022/07/18 07:07:44;;;;;;;;;;;20.40;99.90;;;;;;5146165;27;19927;-71
2022/07/18 07:10:11;;;;;;;;;;;20.40;99.90;;;;;;5164192;27;19937;-72
2022/07/18 07:12:43;;;;;;;;;;;20.50;99.90;;;;;;5165212;27;19936;-71
2022/07/18 07:15:09;;;;;;;;;;;20.50;99.90;;;;;;5146094;27;19923;-71
2022/07/18 07:17:35;;;;;;;;;;;20.60;99.90;;;;;;5167526;27;19967;-70
2022/07/18 07:20:01;;;;;;;;;;;20.80;99.90;;;;;;5164484;27;20089;-70
2022/07/18 07:22:27;;;;;;;;;;;20.90;99.90;;;;;;5167906;27;19945;-70
2022/07/18 07:24:53;;;;;;;;;;;21.10;99.90;;;;;;5141426;27;20298;-69
2022/07/18 07:27:18;;;;;;;;;;;21.50;99.90;;;;;;5161258;27;19947;-70
2022/07/18 07:29:44;;;;;;;;;;;21.70;99.70;;;;;;5166451;27;19923;-70
2022/07/18 07:32:09;;;;;;;;;;;22.00;99.10;;;;;;5165361;27;19926;-69
2022/07/18 07:34:35;;;;;;;;;;;22.30;99.10;;;;;;5161376;27;19927;-70
2022/07/18 07:37:00;;;;;;;;;;;22.90;97.80;;;;;;5166121;27;19930;-70
2022/07/18 07:39:26;;;;;;;;;;;23.60;97.40;;;;;;5145547;27;20822;-70
2022/07/18 07:41:52;;;;;;;;;;;24.20;96.20;;;;;;5145107;27;19934;-69
2022/07/18 07:44:18;;;;;;;;;;;24.30;95.40;;;;;;5139907;27;20321;-71
2022/07/18 07:46:43;;;;;;;;;;;24.30;95.20;;;;;;5156600;27;19931;-71
2022/07/18 07:49:09;;;;;;;;;;;24.30;95.40;;;;;;5145864;27;20505;-70
2022/07/18 07:51:34;;;;;;;;;;;24.50;94.90;;;;;;5166034;27;19927;-72
2022/07/18 07:54:00;;;;;;;;;;;24.90;93.90;;;;;;5145748;27;19927;-70
2022/07/18 07:56:25;;;;;;;;;;;25.40;93.80;;;;;;5166350;27;19926;-73
2022/07/18 07:58:51;;;;;;;;;;;25.90;92.80;;;;;;5158699;27;19923;-69
2022/07/18 08:01:19;;;;;;;;;;;26.30;93.20;;;;;;5167207;27;20346;-70
2022/07/18 08:03:46;;;;;;;;;;;26.70;92.00;;;;;;5162961;27;20347;-70
2022/07/18 08:06:11;;;;;;;;;;;26.60;92.20;;;;;;5147447;27;19944;-70
2022/07/18 08:08:37;;;;;;;;;;;26.50;91.90;;;;;;5164387;27;19923;-70
2022/07/18 08:11:02;;;;;;;;;;;26.60;91.80;;;;;;5163422;27;20278;-70
2022/07/18 08:13:28;;;;;;;;;;;26.60;91.80;;;;;;5161184;27;19927;-70
2022/07/18 08:15:53;;;;;;;;;;;26.90;90.60;;;;;;5165493;27;19927;-69
2022/07/18 08:18:19;;;;;;;;;;;27.20;90.50;;;;;;5161882;27;19974;-69
2022/07/18 08:20:44;;;;;;;;;;;27.30;90.40;;;;;;5166693;27;19951;-77
2022/07/18 08:23:11;;;;;;;;;;;27.60;90.90;;;;;;5163228;27;19923;-72
2022/07/18 08:25:37;;;;;;;;;;;27.90;90.10;;;;;;5161000;27;19931;-70
2022/07/18 08:28:03;;;;;;;;;;;28.00;90.00;;;;;;5143750;27;19924;-71
2022/07/18 08:30:30;;;;;;;;;;;27.90;89.10;;;;;;5146325;27;20125;-70
2022/07/18 08:32:55;;;;;;;;;;;27.70;88.70;;;;;;5162656;27;20476;-69
2022/07/18 08:35:22;;;;;;;;;;;28.10;90.40;;;;;;5165767;27;19919;-71
2022/07/18 08:37:47;;;;;;;;;;;28.70;87.00;;;;;;5144031;27;20025;-70
2022/07/18 08:40:13;;;;;;;;;;;29.00;86.50;;;;;;5147060;27;20051;-70
2022/07/18 08:42:39;;;;;;;;;;;29.20;87.90;;;;;;5144126;27;19930;-70
2022/07/18 08:45:05;;;;;;;;;;;29.70;87.10;;;;;;5164314;27;20297;-70
2022/07/18 08:47:31;;;;;;;;;;;30.00;86.70;;;;;;5145087;27;19929;-69
2022/07/18 08:49:57;;;;;;;;;;;30.10;86.00;;;;;;5145304;27;19923;-69
2022/07/18 08:52:22;;;;;;;;;;;30.10;85.80;;;;;;5158760;27;19923;-69
2022/07/18 08:54:51;;;;;;;;;;;29.90;84.70;;;;;;5144816;27;19919;-70
2022/07/18 08:57:17;;;;;;;;;;;30.00;82.60;;;;;;5164667;27;19923;-69
2022/07/18 08:59:43;;;;;;;;;;;30.30;84.20;;;;;;5160376;27;19976;-70
2022/07/18 09:02:08;;;;;;;;;;;30.40;83.60;;;;;;5147067;27;19922;-69
2022/07/18 09:04:41;;;;;;;;;;;30.80;84.10;;;;;;5144319;27;19946;-70
2022/07/18 09:07:10;;;;;;;;;;;30.80;81.50;;;;;;5122934;27;20575;-69
2022/07/18 09:09:36;;;;;;;;;;;30.70;81.70;;;;;;5155099;27;20009;-69
2022/07/18 09:12:04;;;;;;;;;;;30.90;81.50;;;;;;5158254;27;19923;-69
2022/07/18 09:14:38;;;;;;;;;;;31.00;82.90;;;;;;5158080;27;19967;-69
2022/07/18 09:17:16;;;;;;;;;;;31.00;83.30;;;;;;5147207;27;19927;-70
2022/07/18 09:19:42;;;;;;;;;;;30.90;82.80;;;;;;5141363;27;20370;-69
2022/07/18 09:22:14;;;;;;;;;;;30.70;82.00;;;;;;5163494;27;19930;-70
2022/07/18 09:24:49;;;;;;;;;;;30.90;82.70;;;;;;5160922;27;20042;-70
2022/07/18 09:27:24;;;;;;;;;;;31.40;82.80;;;;;;5164197;27;19926;-70
2022/07/18 09:30:08;;;;;;;;;;;31.50;81.50;;;;;;5142942;27;19923;-69
2022/07/18 09:32:34;;;;;;;;;;;31.30;81.00;;;;;;5161347;27;20389;-69
2022/07/18 09:35:10;;;;;;;;;;;31.30;81.40;;;;;;5139712;27;19923;-69
2022/07/18 09:37:36;;;;;;;;;;;31.30;82.10;;;;;;5129708;27;19934;-69
2022/07/18 09:40:21;;;;;;;;;;;31.20;82.70;;;;;;5139384;27;19927;-69
2022/07/18 09:42:51;;;;;;;;;;;31.40;81.00;;;;;;5139846;27;19931;-71
2022/07/18 09:45:21;;;;;;;;;;;31.20;81.90;;;;;;5156539;27;19927;-71
2022/07/18 09:47:51;;;;;;;;;;;31.30;81.30;;;;;;5134975;27;19927;-71
2022/07/18 09:50:19;;;;;;;;;;;31.40;82.20;;;;;;5139565;27;19923;-72
2022/07/18 09:52:44;;;;;;;;;;;32.00;80.70;;;;;;5140007;27;20364;-70
2022/07/18 09:55:10;;;;;;;;;;;32.30;80.40;;;;;;5135471;27;20030;-71
2022/07/18 09:57:37;;;;;;;;;;;32.40;80.10;;;;;;5153664;27;19986;-71
2022/07/18 10:00:03;;;;;;;;;;;32.70;79.80;;;;;;5154230;27;20742;-71
2022/07/18 10:02:29;;;;;;;;;;;32.80;78.50;;;;;;5138926;27;19933;-71
2022/07/18 10:04:54;;;;;;;;;;;32.90;78.70;;;;;;5136155;27;19923;-68
2022/07/18 10:07:20;;;;;;;;;;;33.20;77.80;;;;;;5135018;27;21278;-69
2022/07/18 10:09:49;;;;;;;;;;;33.60;78.50;;;;;;5152701;27;19950;-71
2022/07/18 10:12:15;;;;;;;;;;;33.60;76.20;;;;;;5141335;27;19931;-74
2022/07/18 10:14:41;;;;;;;;;;;33.70;74.60;;;;;;5138608;27;20305;-74
2022/07/18 10:17:06;;;;;;;;;;;33.80;76.50;;;;;;5142726;27;19923;-73
2022/07/18 10:19:34;;;;;;;;;;;33.60;75.20;;;;;;5164269;27;19923;-73
2022/07/18 10:21:59;;;;;;;;;;;33.60;74.10;;;;;;5161539;27;19967;-72
2022/07/18 10:24:25;;;;;;;;;;;33.40;73.90;;;;;;5141630;27;19927;-69
2022/07/18 10:27:10;;;;;;;;;;;33.00;75.00;;;;;;5146255;27;19922;-75
2022/07/18 10:29:35;;;;;;;;;;;32.80;75.90;;;;;;5141836;27;19927;-76
2022/07/18 10:32:02;;;;;;;;;;;32.50;74.00;;;;;;5145230;27;19930;-72
2022/07/18 10:34:30;;;;;;;;;;;32.60;74.60;;;;;;5144628;27;19930;-71
2022/07/18 10:37:00;;;;;;;;;;;32.80;73.40;;;;;;5148737;27;19927;-70
2022/07/18 10:39:33;;;;;;;;;;;32.50;74.30;;;;;;5143264;27;20401;-71
2022/07/18 10:41:58;;;;;;;;;;;32.70;76.10;;;;;;5147382;27;19930;-72
2022/07/18 10:44:34;;;;;;;;;;;33.00;76.00;;;;;;5165837;27;19923;-72
2022/07/18 10:47:02;;;;;;;;;;;33.10;76.20;;;;;;5150771;27;19923;-70
2022/07/18 10:49:46;;;;;;;;;;;33.50;73.40;;;;;;5154843;27;19927;-72
2022/07/18 10:52:24;;;;;;;;;;;33.40;73.50;;;;;;5154471;27;19923;-69
2022/07/18 10:55:16;;;;;;;;;;;33.30;73.70;;;;;;5139250;27;20227;-68
2022/07/18 10:57:42;;;;;;;;;;;33.50;73.20;;;;;;5148441;27;19931;-70
2022/07/18 11:00:10;;;;;;;;;;;33.20;72.70;;;;;;5146234;27;19923;-71
2022/07/18 11:02:37;;;;;;;;;;;32.60;73.30;;;;;;5133291;27;20423;-69
2022/07/18 11:05:19;;;;;;;;;;;32.60;74.70;;;;;;5138146;27;19930;-69
2022/07/18 11:08:04;;;;;;;;;;;31.90;73.40;;;;;;5146331;27;19930;-71
2022/07/18 11:13:31;;;;;;;;;;;31.60;74.80;;;;;;5145196;27;20026;-72
2022/07/18 11:15:58;;;;;;;;;;;31.40;74.50;;;;;;5132700;27;19923;-72
2022/07/18 11:18:24;;;;;;;;;;;31.20;74.90;;;;;;5167058;27;19927;-71
2022/07/18 11:20:50;;;;;;;;;;;31.20;76.80;;;;;;5163657;27;19934;-72
2022/07/18 11:23:17;;;;;;;;;;;31.30;76.20;;;;;;5165541;27;19927;-71
2022/07/18 11:25:43;;;;;;;;;;;31.40;75.30;;;;;;5144188;27;20386;-69
2022/07/18 11:28:09;;;;;;;;;;;31.50;73.40;;;;;;5140100;27;20373;-70
2022/07/18 11:30:35;;;;;;;;;;;31.30;76.30;;;;;;5140245;27;19927;-70
2022/07/18 11:33:04;;;;;;;;;;;31.00;75.50;;;;;;5142535;27;19934;-71
2022/07/18 11:35:30;;;;;;;;;;;30.50;77.40;;;;;;5157864;27;19974;-71
2022/07/18 11:37:56;;;;;;;;;;;30.90;75.80;;;;;;5140216;27;19981;-71
2022/07/18 11:40:22;;;;;;;;;;;31.00;77.70;;;;;;5137513;27;19931;-71
2022/07/18 11:42:47;;;;;;;;;;;31.20;76.10;;;;;;5137640;27;20302;-71
2022/07/18 11:45:15;;;;;;;;;;;31.30;76.60;;;;;;5137851;27;19933;-71
2022/07/18 11:47:48;;;;;;;;;;;31.10;75.50;;;;;;5137246;27;20667;-71
2022/07/18 11:50:14;;;;;;;;;;;31.20;75.80;;;;;;5154002;27;19926;-72
2022/07/18 11:52:42;;;;;;;;;;;31.10;77.10;;;;;;5135370;27;20316;-70
2022/07/18 11:55:08;;;;;;;;;;;31.10;75.80;;;;;;5155458;27;19923;-70
2022/07/18 11:57:33;;;;;;;;;;;31.20;76.60;;;;;;5156911;27;19923;-70
2022/07/18 12:00:00;;;;;;;;;;;31.20;76.30;;;;;;5158035;27;20025;-70
2022/07/18 12:02:44;;;;;;;;;;;31.50;76.60;;;;;;5154603;27;19973;-71
2022/07/18 12:05:09;;;;;;;;;;;31.80;79.50;;;;;;5154735;27;20394;-71
2022/07/18 12:07:35;;;;;;;;;;;31.80;75.20;;;;;;5156950;27;19982;-70
2022/07/18 12:10:14;;;;;;;;;;;31.80;79.40;;;;;;5139008;27;20358;-70
2022/07/18 12:12:40;;;;;;;;;;;31.80;75.50;;;;;;5155391;27;20417;-70
2022/07/18 12:15:06;;;;;;;;;;;32.00;74.10;;;;;;5140339;27;19982;-70
2022/07/18 12:17:42;;;;;;;;;;;32.00;75.20;;;;;;5156314;27;20358;-70
2022/07/18 12:20:13;;;;;;;;;;;31.90;75.60;;;;;;5136342;27;19942;-71
2022/07/18 12:22:58;;;;;;;;;;;31.80;75.30;;;;;;5158249;27;20370;-71
2022/07/18 12:25:34;;;;;;;;;;;31.90;76.30;;;;;;5137405;27;19955;-70
2022/07/18 12:28:11;;;;;;;;;;;31.70;74.00;;;;;;5138196;27;19929;-71
2022/07/18 12:30:37;;;;;;;;;;;31.40;76.30;;;;;;5156227;27;19923;-71
2022/07/18 12:33:06;;;;;;;;;;;31.10;75.00;;;;;;5140012;27;20018;-71
2022/07/18 12:35:36;;;;;;;;;;;30.90;75.80;;;;;;5156652;27;20362;-71
2022/07/18 12:38:04;;;;;;;;;;;30.90;76.40;;;;;;5158161;27;19968;-71
2022/07/18 12:40:42;;;;;;;;;;;30.60;77.30;;;;;;5148147;27;19923;-72
2022/07/18 12:43:15;;;;;;;;;;;30.60;78.80;;;;;;5141306;27;19930;-72
2022/07/18 12:45:41;;;;;;;;;;;30.70;78.40;;;;;;5164927;27;19929;-71
2022/07/18 12:48:08;;;;;;;;;;;31.00;79.60;;;;;;5162382;27;19922;-72
2022/07/18 12:50:34;;;;;;;;;;;31.50;79.20;;;;;;5162692;27;19929;-70
2022/07/18 12:52:59;;;;;;;;;;;31.80;79.70;;;;;;5159270;27;19923;-71
2022/07/18 12:55:26;;;;;;;;;;;32.00;75.50;;;;;;5147007;27;20124;-73
2022/07/18 12:57:51;;;;;;;;;;;32.20;75.50;;;;;;5162057;27;19924;-72
2022/07/18 13:00:17;;;;;;;;;;;32.20;74.60;;;;;;5163021;27;19929;-72
2022/07/18 13:02:43;;;;;;;;;;;32.30;74.70;;;;;;5146720;27;19962;-72
2022/07/18 13:05:08;;;;;;;;;;;32.30;75.60;;;;;;5163400;27;19923;-70
2022/07/18 13:07:34;;;;;;;;;;;32.40;75.10;;;;;;5164861;27;19919;-71
2022/07/18 13:10:00;;;;;;;;;;;32.60;72.70;;;;;;5165874;27;19927;-71
2022/07/18 13:12:25;;;;;;;;;;;32.40;73.00;;;;;;5139099;27;19927;-71
2022/07/18 13:14:51;;;;;;;;;;;32.60;74.50;;;;;;5165026;27;19929;-71
2022/07/18 13:17:16;;;;;;;;;;;32.90;74.30;;;;;;5144845;27;20085;-71
2022/07/18 13:19:42;;;;;;;;;;;32.50;73.70;;;;;;5163516;27;20826;-71
2022/07/18 13:22:08;;;;;;;;;;;32.20;74.40;;;;;;5164304;27;20013;-70
2022/07/18 13:24:34;;;;;;;;;;;32.10;73.70;;;;;;5163318;27;20387;-71
2022/07/18 13:27:03;;;;;;;;;;;31.70;74.70;;;;;;5164293;27;19963;-70
2022/07/18 13:29:28;;;;;;;;;;;32.00;77.40;;;;;;5162266;27;19930;-71
2022/07/18 13:31:55;;;;;;;;;;;32.00;76.40;;;;;;5146350;27;19923;-71
2022/07/18 13:34:20;;;;;;;;;;;32.40;74.90;;;;;;5146305;27;19967;-70
2022/07/18 13:36:47;;;;;;;;;;;32.50;74.20;;;;;;5163116;27;19935;-70
2022/07/18 13:39:12;;;;;;;;;;;32.40;74.00;;;;;;5145981;27;19919;-71
2022/07/18 13:41:38;;;;;;;;;;;32.00;73.80;;;;;;5163098;27;20026;-70
2022/07/18 13:44:06;;;;;;;;;;;32.00;73.20;;;;;;5163557;27;19978;-69
2022/07/18 13:46:32;;;;;;;;;;;32.10;74.00;;;;;;5165044;27;19987;-72
2022/07/18 13:48:57;;;;;;;;;;;32.10;74.60;;;;;;5140185;27;20378;-71
2022/07/18 13:51:26;;;;;;;;;;;32.10;73.10;;;;;;5147215;27;19923;-71
2022/07/18 13:53:52;;;;;;;;;;;31.90;73.60;;;;;;5161601;27;20401;-70
2022/07/18 13:56:17;;;;;;;;;;;31.50;75.60;;;;;;5164792;27;19923;-70
2022/07/18 13:58:43;;;;;;;;;;;31.40;74.60;;;;;;5143776;27;19919;-70
2022/07/18 14:01:08;;;;;;;;;;;31.50;74.80;;;;;;5164209;27;19927;-70
2022/07/18 14:03:34;;;;;;;;;;;31.30;73.60;;;;;;5160690;27;19923;-70
2022/07/18 14:05:59;;;;;;;;;;;31.50;73.80;;;;;;5145589;27;20002;-70
2022/07/18 14:08:25;;;;;;;;;;;31.50;72.90;;;;;;5143777;27;20297;-71
2022/07/18 14:10:50;;;;;;;;;;;31.70;71.90;;;;;;5149504;27;19930;-71
2022/07/18 14:13:16;;;;;;;;;;;31.80;71.50;;;;;;5166420;27;20064;-71
2022/07/18 14:15:41;;;;;;;;;;;32.00;72.30;;;;;;5150056;27;19929;-74
2022/07/18 14:18:07;;;;;;;;;;;32.00;70.80;;;;;;5161797;27;19934;-70
2022/07/18 14:20:33;;;;;;;;;;;31.70;69.30;;;;;;5168136;27;20406;-71